createdAt,value
2022-12-22T00:02:44.849Z,5.99
2022-12-22T00:05:39.819Z,5.91
2022-12-22T00:08:27.309Z,5.94
2022-12-22T00:11:14.865Z,5.94
2022-12-22T00:14:03.741Z,5.90
2022-12-22T00:16:52.263Z,5.89
2022-12-22T00:19:38.387Z,5.93
2022-12-22T00:22:44.656Z,6.00
2022-12-22T00:25:39.843Z,5.97
2022-12-22T00:28:33.513Z,6.01
2022-12-22T00:31:22.516Z,5.98
2022-12-22T00:34:08.208Z,5.99
2022-12-22T00:36:54.085Z,5.95
2022-12-22T00:39:40.457Z,5.94
2022-12-22T00:42:27.094Z,5.88
2022-12-22T00:45:12.886Z,5.96
2022-12-22T00:48:00.424Z,6.02
2022-12-22T00:50:54.958Z,6.06
2022-12-22T00:53:41.260Z,6.10
2022-12-22T00:56:27.937Z,6.12
2022-12-22T00:59:16.657Z,6.08
2022-12-22T01:02:02.999Z,6.13
2022-12-22T01:04:49.377Z,6.08
2022-12-22T01:07:45.063Z,6.06
2022-12-22T01:10:32.889Z,6.09
2022-12-22T01:13:19.387Z,6.03
2022-12-22T01:16:05.467Z,6.08
2022-12-22T01:18:51.530Z,6.05
2022-12-22T01:21:39.126Z,6.03
2022-12-22T01:24:33.147Z,6.01
2022-12-22T01:27:19.079Z,5.97
2022-12-22T01:30:05.017Z,6.00
2022-12-22T01:32:53.516Z,5.97
2022-12-22T01:35:43.445Z,5.97
2022-12-22T01:38:29.474Z,6.04
2022-12-22T01:41:17.748Z,5.97
2022-12-22T01:44:03.658Z,5.94
2022-12-22T01:46:55.806Z,5.94
2022-12-22T01:49:44.795Z,5.98
2022-12-22T01:52:34.348Z,5.97
2022-12-22T01:55:26.519Z,5.99
2022-12-22T01:58:12.359Z,5.97
2022-12-22T02:01:02.263Z,6.00
2022-12-22T02:03:48.294Z,6.06
2022-12-22T02:07:01.938Z,6.00
2022-12-22T02:10:07.307Z,6.08
2022-12-22T02:13:16.019Z,6.01
2022-12-22T02:16:28.502Z,6.08
2022-12-22T02:19:25.621Z,6.21
2022-12-22T02:22:31.348Z,6.21
2022-12-22T02:25:24.714Z,6.14
2022-12-22T02:28:14.300Z,6.17
2022-12-22T02:31:01.227Z,6.08
2022-12-22T02:33:47.235Z,6.17
2022-12-22T02:36:45.128Z,6.11
2022-12-22T02:39:48.682Z,6.09
2022-12-22T02:42:47.728Z,6.10
2022-12-22T02:45:45.508Z,6.08
2022-12-22T02:48:55.917Z,6.10
2022-12-22T02:51:45.939Z,6.14
2022-12-22T02:54:36.998Z,6.18
2022-12-22T02:57:25.454Z,6.09
2022-12-22T03:00:11.085Z,6.09
2022-12-22T03:02:57.260Z,6.12
2022-12-22T03:05:46.484Z,6.13
2022-12-22T03:08:32.289Z,6.19
2022-12-22T03:11:18.393Z,6.09
2022-12-22T03:14:04.303Z,6.11
2022-12-22T03:16:50.900Z,6.02
2022-12-22T03:19:36.722Z,6.00
2022-12-22T03:22:22.727Z,5.90
2022-12-22T03:25:08.784Z,6.04
2022-12-22T03:27:36.209Z,6.00
2022-12-22T03:30:04.389Z,5.98
2022-12-22T03:32:31.845Z,5.86
2022-12-22T03:34:59.278Z,5.94
2022-12-22T03:37:26.717Z,5.94
2022-12-22T03:39:54.163Z,5.86
2022-12-22T03:42:40.070Z,5.89
2022-12-22T03:45:44.422Z,5.83
2022-12-22T03:48:12.239Z,6.00
2022-12-22T03:50:39.609Z,5.97
2022-12-22T03:53:07.017Z,6.02
2022-12-22T03:55:34.414Z,6.04
2022-12-22T03:58:01.936Z,6.05
2022-12-22T04:00:29.300Z,6.02
2022-12-22T04:02:58.929Z,6.05
2022-12-22T04:05:27.212Z,6.12
2022-12-22T04:07:54.639Z,6.16
2022-12-22T04:10:40.420Z,6.10
2022-12-22T04:13:07.766Z,6.10
2022-12-22T04:15:35.154Z,6.21
2022-12-22T04:18:02.541Z,6.20
2022-12-22T04:20:29.926Z,6.24
2022-12-22T04:22:57.790Z,6.15
2022-12-22T04:25:25.883Z,6.26
2022-12-22T04:27:53.297Z,6.23
2022-12-22T04:30:20.678Z,6.01
2022-12-22T04:32:48.031Z,5.97
2022-12-22T04:35:15.390Z,5.95
2022-12-22T04:37:42.807Z,6.05
2022-12-22T04:40:10.400Z,6.08
2022-12-22T04:42:37.894Z,6.15
2022-12-22T04:45:05.877Z,6.23
2022-12-22T04:47:33.192Z,6.12
2022-12-22T04:50:00.542Z,6.10
2022-12-22T04:52:30.035Z,6.16
2022-12-22T04:54:57.381Z,6.15
2022-12-22T04:57:24.780Z,6.13
2022-12-22T04:59:52.120Z,6.10
2022-12-22T05:02:19.601Z,6.14
2022-12-22T05:04:47.077Z,6.08
2022-12-22T05:07:14.411Z,6.17
2022-12-22T05:09:41.762Z,6.24
2022-12-22T05:12:27.608Z,6.14
2022-12-22T05:14:54.957Z,6.15
2022-12-22T05:17:22.360Z,6.18
2022-12-22T05:19:49.693Z,6.18
2022-12-22T05:22:17.091Z,6.18
2022-12-22T05:24:44.437Z,6.17
2022-12-22T05:27:12.579Z,6.10
2022-12-22T05:29:39.870Z,6.08
2022-12-22T05:32:07.193Z,6.07
2022-12-22T05:34:34.495Z,6.03
2022-12-22T05:37:01.871Z,6.04
2022-12-22T05:39:29.264Z,6.02
2022-12-22T05:41:56.553Z,5.98
2022-12-22T05:44:24.077Z,6.10
2022-12-22T05:46:52.405Z,6.23
2022-12-22T05:49:20.676Z,6.08
2022-12-22T05:51:48.587Z,6.14
2022-12-22T05:54:15.966Z,6.15
2022-12-22T05:56:43.343Z,6.17
2022-12-22T05:59:11.236Z,6.08
2022-12-22T06:01:38.651Z,6.14
2022-12-22T06:04:08.911Z,6.14
2022-12-22T06:06:36.365Z,6.14
2022-12-22T06:09:03.786Z,6.15
2022-12-22T06:11:31.186Z,6.15
2022-12-22T06:13:58.513Z,6.10
2022-12-22T06:16:25.913Z,6.06
2022-12-22T06:18:53.402Z,6.08
2022-12-22T06:21:20.695Z,6.08
2022-12-22T06:23:48.392Z,6.10
2022-12-22T06:26:15.796Z,6.23
2022-12-22T06:28:43.560Z,6.25
2022-12-22T06:31:11.089Z,6.29
2022-12-22T06:33:38.573Z,6.25
2022-12-22T06:36:09.407Z,6.21
2022-12-22T06:38:36.713Z,6.22
2022-12-22T06:41:04.197Z,6.17
2022-12-22T06:43:31.583Z,6.21
2022-12-22T06:45:59.656Z,6.26
2022-12-22T06:48:28.287Z,6.31
2022-12-22T06:50:59.757Z,6.24
2022-12-22T06:53:27.290Z,6.27
2022-12-22T06:55:57.558Z,6.14
2022-12-22T06:58:24.990Z,6.15
2022-12-22T07:00:56.175Z,6.18
2022-12-22T07:03:23.717Z,6.16
2022-12-22T07:05:51.229Z,6.20
2022-12-22T07:08:18.629Z,6.21
2022-12-22T07:11:00.766Z,6.20
2022-12-22T07:13:34.164Z,6.19
2022-12-22T07:16:03.654Z,6.16
2022-12-22T07:18:35.090Z,6.17
2022-12-22T07:21:05.223Z,6.25
2022-12-22T07:23:32.936Z,6.26
2022-12-22T07:26:01.276Z,6.20
2022-12-22T07:28:46.893Z,6.22
2022-12-22T07:31:32.742Z,6.18
2022-12-22T07:34:18.740Z,6.22
2022-12-22T07:37:05.092Z,6.23
2022-12-22T07:39:32.436Z,6.13
2022-12-22T07:42:18.209Z,6.18
2022-12-22T07:45:04.358Z,6.20
2022-12-22T07:47:35.187Z,6.22
2022-12-22T07:50:32.432Z,6.33
2022-12-22T07:53:18.391Z,6.29
2022-12-22T07:55:45.740Z,6.38
2022-12-22T07:58:31.726Z,6.39
2022-12-22T08:01:00.384Z,6.41
2022-12-22T08:03:46.524Z,6.46
2022-12-22T08:06:34.213Z,6.48
2022-12-22T08:09:02.510Z,6.39
2022-12-22T08:11:49.352Z,6.43
2022-12-22T08:14:35.411Z,6.38
2022-12-22T08:17:21.145Z,6.46
2022-12-22T08:19:48.876Z,6.45
2022-12-22T08:22:16.269Z,6.47
2022-12-22T08:25:02.321Z,6.65
2022-12-22T08:27:54.905Z,6.72
2022-12-22T08:30:22.345Z,6.70
2022-12-22T08:33:08.628Z,6.66
2022-12-22T08:35:59.801Z,6.61
2022-12-22T08:38:31.021Z,6.61
2022-12-22T08:41:37.802Z,6.59
2022-12-22T08:44:05.239Z,6.59
2022-12-22T08:46:52.227Z,6.59
2022-12-22T08:49:20.627Z,6.55
2022-12-22T08:51:48.560Z,6.51
2022-12-22T08:54:16.721Z,6.58
2022-12-22T08:56:44.647Z,6.73
2022-12-22T08:59:12.491Z,6.75
2022-12-22T09:01:44.364Z,6.70
2022-12-22T09:04:13.961Z,6.75
2022-12-22T09:06:45.516Z,6.79
2022-12-22T09:09:14.517Z,6.77
2022-12-22T09:11:43.409Z,6.81
2022-12-22T09:14:12.512Z,6.92
2022-12-22T09:16:40.477Z,6.93
2022-12-22T09:19:08.646Z,6.98
2022-12-22T09:21:36.545Z,6.90
2022-12-22T09:24:07.798Z,6.93
2022-12-22T09:26:35.425Z,7.09
2022-12-22T09:29:03.108Z,7.09
2022-12-22T09:31:30.531Z,7.05
2022-12-22T09:33:58.691Z,7.03
2022-12-22T09:36:29.938Z,7.08
2022-12-22T09:38:57.602Z,7.09
2022-12-22T09:41:35.925Z,7.21
2022-12-22T09:44:14.005Z,7.28
2022-12-22T09:46:41.757Z,7.25
2022-12-22T09:49:14.771Z,7.30
2022-12-22T09:51:46.673Z,7.20
2022-12-22T09:54:14.263Z,7.22
2022-12-22T09:56:41.946Z,7.21
2022-12-22T09:59:15.232Z,7.24
2022-12-22T10:01:56.659Z,7.41
2022-12-22T10:04:27.182Z,7.46
2022-12-22T10:07:09.949Z,7.39
2022-12-22T10:09:52.903Z,7.56
2022-12-22T10:12:25.859Z,7.53
2022-12-22T10:14:54.609Z,7.46
2022-12-22T10:17:32.561Z,7.18
2022-12-22T10:20:25.542Z,7.24
2022-12-22T10:22:52.990Z,7.35
2022-12-22T10:26:17.333Z,7.41
2022-12-22T10:28:33.516Z,7.52
2022-12-22T10:31:18.350Z,7.58
2022-12-22T10:33:49.055Z,7.61
2022-12-22T10:36:41.354Z,7.63
2022-12-22T10:39:10.630Z,7.70
2022-12-22T10:41:50.157Z,7.82
2022-12-22T10:44:17.421Z,7.86
2022-12-22T10:46:57.483Z,7.75
2022-12-22T10:49:28.622Z,7.69
2022-12-22T10:52:18.432Z,7.73
2022-12-22T10:54:47.786Z,7.84
2022-12-22T10:57:15.177Z,7.70
2022-12-22T10:59:59.401Z,7.59
2022-12-22T11:02:34.615Z,7.67
2022-12-22T11:05:12.650Z,7.57
2022-12-22T11:07:45.423Z,7.58
2022-12-22T11:10:18.541Z,7.57
2022-12-22T11:13:12.130Z,7.48
2022-12-22T11:15:42.379Z,7.55
2022-12-22T11:18:45.745Z,7.49
2022-12-22T11:21:26.262Z,7.66
2022-12-22T11:24:12.538Z,7.65
2022-12-22T11:26:54.731Z,7.55
2022-12-22T11:29:59.666Z,7.55
2022-12-22T11:32:44.420Z,7.53
2022-12-22T11:35:35.437Z,7.75
2022-12-22T11:38:18.048Z,7.71
2022-12-22T11:40:51.295Z,7.70
2022-12-22T11:43:52.434Z,7.69
2022-12-22T11:46:53.812Z,7.89
2022-12-22T11:50:00.223Z,7.92
2022-12-22T11:52:48.001Z,8.00
2022-12-22T11:55:40.495Z,8.36
2022-12-22T11:58:19.180Z,8.44
2022-12-22T12:01:15.409Z,8.70
2022-12-22T12:03:58.110Z,8.54
2022-12-22T12:06:39.983Z,8.68
2022-12-22T12:09:26.799Z,8.87
2022-12-22T12:12:11.058Z,8.93
2022-12-22T12:14:45.853Z,8.76
2022-12-22T12:17:51.592Z,9.04
2022-12-22T12:20:46.040Z,9.03
2022-12-22T12:23:44.893Z,8.68
2022-12-22T12:26:22.703Z,8.49
2022-12-22T12:29:16.801Z,8.18
2022-12-22T12:32:13.528Z,8.09
2022-12-22T12:34:47.464Z,8.17
2022-12-22T12:37:26.387Z,8.35
2022-12-22T12:40:05.085Z,8.35
2022-12-22T12:42:45.253Z,8.27
2022-12-22T12:45:36.473Z,8.28
2022-12-22T12:48:22.201Z,8.29
2022-12-22T12:50:52.706Z,8.38
2022-12-22T12:53:21.939Z,8.20
2022-12-22T12:55:52.232Z,8.39
2022-12-22T12:58:38.043Z,8.27
2022-12-22T13:01:08.197Z,8.14
2022-12-22T13:04:02.273Z,8.12
2022-12-22T13:06:49.329Z,8.13
2022-12-22T13:12:33.420Z,8.39
2022-12-22T13:15:01.906Z,8.34
2022-12-22T13:17:49.451Z,8.34
2022-12-22T13:20:40.747Z,8.23
2022-12-22T13:23:14.727Z,8.20
2022-12-22T13:25:49.521Z,8.16
2022-12-22T13:28:20.052Z,8.24
2022-12-22T13:30:50.237Z,8.27
2022-12-22T13:33:25.547Z,8.34
2022-12-22T13:35:58.502Z,8.31
2022-12-22T13:38:26.362Z,8.30
2022-12-22T13:40:53.771Z,8.39
2022-12-22T13:43:21.454Z,8.31
2022-12-22T13:45:55.845Z,8.21
2022-12-22T13:48:30.441Z,8.27
2022-12-22T13:51:00.793Z,8.21
2022-12-22T13:56:38.268Z,8.27
2022-12-22T13:59:17.973Z,8.28
2022-12-22T14:01:50.466Z,8.16
2022-12-22T14:04:18.025Z,8.04
2022-12-22T14:06:45.476Z,8.07
2022-12-22T14:09:19.071Z,8.09
2022-12-22T14:11:52.124Z,8.02
2022-12-22T14:14:26.896Z,7.94
2022-12-22T14:16:57.872Z,7.83
2022-12-22T14:19:28.573Z,7.82
2022-12-22T14:22:04.684Z,7.78
2022-12-22T14:24:42.103Z,7.82
2022-12-22T14:27:19.294Z,7.91
2022-12-22T14:29:46.736Z,7.81
2022-12-22T14:32:42.223Z,7.78
2022-12-22T14:35:22.117Z,7.78
2022-12-22T14:38:06.914Z,7.79
2022-12-22T14:40:40.194Z,7.68
2022-12-22T14:43:24.575Z,7.69
2022-12-22T14:46:01.011Z,7.72
2022-12-22T14:48:32.948Z,7.77
2022-12-22T14:51:01.328Z,7.82
2022-12-22T14:53:43.952Z,7.75
2022-12-22T14:56:19.703Z,7.74
2022-12-22T14:58:48.750Z,7.75
2022-12-22T15:01:18.895Z,7.75
2022-12-22T15:04:16.962Z,7.69
2022-12-22T15:06:47.872Z,7.64
2022-12-22T15:09:15.248Z,7.62
2022-12-22T15:12:07.184Z,7.62
2022-12-22T15:14:38.906Z,7.65
2022-12-22T15:17:07.923Z,7.69
2022-12-22T15:19:36.741Z,7.74
2022-12-22T15:22:08.092Z,7.71
2022-12-22T15:24:35.475Z,7.73
2022-12-22T15:27:02.913Z,7.72
2022-12-22T15:29:30.894Z,7.71
2022-12-22T15:31:58.255Z,7.72
2022-12-22T15:34:28.533Z,7.69
2022-12-22T15:36:55.916Z,7.67
2022-12-22T15:39:24.649Z,7.68
2022-12-22T15:41:52.112Z,7.67
2022-12-22T15:44:22.590Z,7.62
2022-12-22T15:46:56.370Z,7.64
2022-12-22T15:49:27.153Z,7.62
2022-12-22T15:52:00.908Z,7.65
2022-12-22T15:54:32.738Z,7.56
2022-12-22T15:57:01.114Z,7.63
2022-12-22T15:59:29.650Z,7.67
2022-12-22T16:02:01.308Z,7.65
2022-12-22T16:04:30.111Z,7.65
2022-12-22T16:06:59.625Z,7.68
2022-12-22T16:09:32.624Z,7.66
2022-12-22T16:12:00.226Z,7.64
2022-12-22T16:14:29.258Z,7.65
2022-12-22T16:16:58.787Z,7.65
2022-12-22T16:19:26.187Z,7.64
2022-12-22T16:21:54.160Z,7.63
2022-12-22T16:24:34.251Z,7.64
2022-12-22T16:27:02.418Z,7.57
2022-12-22T16:29:30.349Z,7.65
2022-12-22T16:32:26.844Z,7.66
2022-12-22T16:35:00.990Z,7.65
2022-12-22T16:37:28.374Z,7.64
2022-12-22T16:39:55.783Z,7.63
2022-12-22T16:45:18.217Z,7.73
2022-12-22T16:47:46.460Z,7.84
2022-12-22T16:50:20.043Z,7.77
2022-12-22T16:52:48.940Z,7.69
2022-12-22T16:55:21.142Z,7.67
2022-12-22T16:57:48.860Z,7.65
2022-12-22T17:00:36.559Z,7.71
2022-12-22T17:03:13.374Z,7.63
2022-12-22T17:05:51.057Z,7.69
2022-12-22T17:08:34.182Z,7.66
2022-12-22T17:11:10.087Z,7.62
2022-12-22T17:13:38.870Z,7.65
2022-12-22T17:16:06.797Z,7.61
2022-12-22T17:18:35.432Z,7.64
2022-12-22T17:21:07.111Z,7.61
2022-12-22T17:23:44.631Z,7.72
2022-12-22T17:26:16.400Z,7.75
2022-12-22T17:28:45.606Z,7.69
2022-12-22T17:31:21.578Z,7.66
2022-12-22T17:33:49.566Z,7.63
2022-12-22T17:36:25.109Z,7.70
2022-12-22T17:38:52.478Z,7.54
2022-12-22T17:41:20.193Z,7.56
2022-12-22T17:43:50.326Z,7.51
2022-12-22T17:46:19.817Z,7.62
2022-12-22T17:48:47.996Z,7.64
2022-12-22T17:51:23.259Z,7.57
2022-12-22T17:53:51.766Z,7.49
2022-12-22T17:56:21.446Z,7.54
2022-12-22T17:58:49.265Z,7.47
2022-12-22T18:01:24.201Z,7.45
2022-12-22T18:03:51.774Z,7.45
2022-12-22T18:06:22.631Z,7.47
2022-12-22T18:08:52.056Z,7.46
2022-12-22T18:11:20.168Z,7.45
2022-12-22T18:13:47.862Z,7.42
2022-12-22T18:16:18.037Z,7.46
2022-12-22T18:18:50.739Z,7.46
2022-12-22T18:21:21.413Z,7.33
2022-12-22T18:23:52.540Z,7.29
2022-12-22T18:26:23.576Z,7.27
2022-12-22T18:28:51.980Z,7.21
2022-12-22T18:31:20.469Z,7.17
2022-12-22T18:33:48.213Z,7.18
2022-12-22T18:36:33.808Z,7.41
2022-12-22T18:39:02.510Z,7.27
2022-12-22T18:41:34.744Z,7.20
2022-12-22T18:44:02.214Z,7.20
2022-12-22T18:46:30.548Z,7.31
2022-12-22T18:49:01.920Z,7.23
2022-12-22T18:51:32.596Z,7.13
2022-12-22T18:53:59.921Z,7.11
2022-12-22T18:56:27.328Z,7.09
2022-12-22T18:58:54.626Z,7.16
2022-12-22T19:01:26.752Z,7.21
2022-12-22T19:03:57.386Z,7.14
2022-12-22T19:06:24.826Z,7.14
2022-12-22T19:08:52.275Z,7.18
2022-12-22T19:11:26.241Z,7.18
2022-12-22T19:13:53.745Z,7.14
2022-12-22T19:16:25.851Z,7.16
2022-12-22T19:18:53.357Z,7.14
2022-12-22T19:21:21.032Z,7.20
2022-12-22T19:23:48.490Z,7.13
2022-12-22T19:26:25.360Z,7.11
2022-12-22T19:28:55.653Z,7.11
2022-12-22T19:31:26.363Z,7.08
2022-12-22T19:33:56.024Z,7.13
2022-12-22T19:36:26.592Z,7.11
2022-12-22T19:39:03.394Z,7.09
2022-12-22T19:41:38.724Z,7.12
2022-12-22T19:44:28.690Z,7.09
2022-12-22T19:46:59.217Z,7.08
2022-12-22T19:49:28.137Z,7.05
2022-12-22T19:51:56.431Z,7.15
2022-12-22T19:54:24.239Z,7.05
2022-12-22T19:56:55.122Z,7.05
2022-12-22T19:59:44.786Z,7.05
2022-12-22T20:02:23.932Z,7.06
2022-12-22T20:04:52.024Z,7.07
2022-12-22T20:07:22.646Z,7.10
2022-12-22T20:09:50.380Z,7.06
2022-12-22T20:12:30.625Z,7.06
2022-12-22T20:14:58.571Z,7.08
2022-12-22T20:17:28.615Z,7.06
2022-12-22T20:19:55.954Z,7.00
2022-12-22T20:22:26.630Z,7.07
2022-12-22T20:24:54.573Z,7.01
2022-12-22T20:27:25.694Z,7.03
2022-12-22T20:29:53.153Z,7.08
2022-12-22T20:32:27.269Z,7.10
2022-12-22T20:34:55.810Z,7.13
2022-12-22T20:37:23.531Z,7.12
2022-12-22T20:39:50.851Z,7.16
2022-12-22T20:42:20.265Z,7.16
2022-12-22T20:45:02.392Z,7.18
2022-12-22T20:47:35.758Z,7.17
2022-12-22T20:50:03.967Z,7.14
2022-12-22T20:52:31.276Z,7.31
2022-12-22T20:54:58.778Z,7.28
2022-12-22T20:57:28.824Z,7.21
2022-12-22T20:59:56.986Z,7.20
2022-12-22T21:02:28.219Z,7.16
2022-12-22T21:04:56.545Z,7.25
2022-12-22T21:07:23.912Z,7.39
2022-12-22T21:09:54.031Z,7.26
2022-12-22T21:12:21.364Z,7.18
2022-12-22T21:14:50.473Z,7.15
2022-12-22T21:17:21.734Z,7.20
2022-12-22T21:19:49.805Z,7.18
2022-12-22T21:22:17.792Z,7.17
2022-12-22T21:24:48.017Z,7.12
2022-12-22T21:27:20.028Z,7.12
2022-12-22T21:29:47.772Z,7.23
2022-12-22T21:32:15.870Z,7.25
2022-12-22T21:34:43.299Z,7.18
2022-12-22T21:37:19.241Z,7.15
2022-12-22T21:39:46.668Z,7.16
2022-12-22T21:42:16.334Z,7.15
2022-12-22T21:44:47.067Z,7.13
2022-12-22T21:47:17.824Z,7.21
2022-12-22T21:49:45.228Z,7.22
2022-12-22T21:52:12.694Z,7.20
2022-12-22T21:54:40.122Z,7.17
2022-12-22T21:57:14.761Z,7.19
2022-12-22T21:59:44.936Z,7.12
2022-12-22T22:02:17.090Z,7.11
2022-12-22T22:04:51.800Z,7.10
2022-12-22T22:07:21.821Z,7.13
2022-12-22T22:09:49.163Z,7.15
2022-12-22T22:12:36.426Z,7.14
2022-12-22T22:15:08.031Z,7.11
2022-12-22T22:17:35.484Z,7.11
2022-12-22T22:20:04.193Z,7.12
2022-12-22T22:22:31.533Z,7.11
2022-12-22T22:24:58.923Z,7.14
2022-12-22T22:27:26.347Z,7.10
2022-12-22T22:29:53.733Z,7.07
2022-12-22T22:32:21.292Z,7.09
2022-12-22T22:34:48.703Z,7.10
2022-12-22T22:37:17.409Z,7.10
2022-12-22T22:39:44.821Z,7.09
2022-12-22T22:42:12.132Z,7.07
2022-12-22T22:44:39.512Z,7.05
2022-12-22T22:47:06.772Z,7.10
2022-12-22T22:49:37.078Z,7.08
2022-12-22T22:52:04.649Z,7.10
2022-12-22T22:54:32.812Z,7.09
2022-12-22T22:57:00.363Z,7.08
2022-12-22T22:59:29.556Z,7.07
2022-12-22T23:01:56.965Z,7.08
2022-12-22T23:04:24.427Z,7.03
2022-12-22T23:06:51.785Z,7.04
2022-12-22T23:09:19.184Z,7.08
2022-12-22T23:11:46.496Z,7.10
2022-12-22T23:14:13.863Z,7.15
2022-12-22T23:16:41.294Z,7.10
2022-12-22T23:19:08.673Z,7.10
2022-12-22T23:21:36.008Z,7.32
2022-12-22T23:24:03.535Z,7.38
2022-12-22T23:26:31.225Z,7.29
2022-12-22T23:29:03.216Z,7.22
2022-12-22T23:31:32.940Z,7.19
2022-12-22T23:34:00.854Z,7.12
2022-12-22T23:36:28.341Z,7.22
2022-12-22T23:38:55.721Z,7.30
2022-12-22T23:41:23.150Z,7.30
2022-12-22T23:43:50.704Z,7.27
2022-12-22T23:46:18.205Z,7.24
2022-12-22T23:48:50.745Z,7.15
2022-12-22T23:51:18.673Z,7.13
2022-12-22T23:53:46.078Z,7.09
2022-12-22T23:56:13.501Z,7.10
2022-12-22T23:58:41.032Z,7.09
